»·PEaware :: CFS1036 KSBP-KONT

CFS1036 :: KSBP-KONT

FLIGHT INFORMATION

Flight Status: Arrived
Operator: Unknown
More flights by this operator :: More flights under this callsign
Pilot: Anonymous 10623 (10623)
Aircraft: CESSNA 208 CARAVAN
(C208)
More flights by this aircraft type
Origin: KSBP San Luis Co Regl
United States
Destination: KONT Ontario Intl
United States
More flights between these airports :: More routes between these airports
Route: RZS V186 PDZ
File this flight plan on PilotEdge
Remarks:
Altitude:
(Current/Filed)
7,000ft
Speed:
(Current/Filed)
150kts
Departed: 26-Aug-21 09:32 AM
Arrived: 26-Aug-21 11:00 AM
Distance/Time
Traveled:
165nm/1:28
Distance/Time
To Go:
Arrived

Flight Plot

Page will automatically refresh every two minutes.


Map Options




Map Legend


Flown Route
Filed Route
Departure Airport
Arrival Airport
Navaid (VOR, NDB)
Fix

Horizontal Profiles

Position Reports

Time Latitude Longitude Heading Altitude Ground
Speed
26-Aug-21 09:13 35.238894 -120.638748 270 216ft 0kts
26-Aug-21 09:14 35.238894 -120.638748 270 216ft 0kts
26-Aug-21 09:15 35.238894 -120.638748 270 216ft 0kts
26-Aug-21 09:16 35.238894 -120.638748 270 216ft 0kts
26-Aug-21 09:17 35.238894 -120.638748 270 216ft 0kts
26-Aug-21 09:18 35.238894 -120.638748 270 216ft 0kts
26-Aug-21 09:19 35.238894 -120.638748 270 216ft 0kts
26-Aug-21 09:20 35.238894 -120.638748 270 216ft 0kts
26-Aug-21 09:21 35.238894 -120.638748 270 216ft 0kts
26-Aug-21 09:22 35.238894 -120.638748 270 216ft 0kts
26-Aug-21 09:23 35.238894 -120.638748 270 216ft 0kts
26-Aug-21 09:24 35.238894 -120.638756 270 216ft 0kts
26-Aug-21 09:25 35.237543 -120.639482 118 216ft 7kts
26-Aug-21 09:26 35.236377 -120.637403 124 216ft 8kts
26-Aug-21 09:27 35.234047 -120.633316 125 216ft 16kts
26-Aug-21 09:28 35.233293 -120.632342 215 216ft 0kts
26-Aug-21 09:29 35.233291 -120.632343 216 216ft 0kts
26-Aug-21 09:30 35.232806 -120.633056 292 216ft 8kts
26-Aug-21 09:31 35.244001 -120.652670 303 818ft 106kts
26-Aug-21 09:32 35.258624 -120.678056 302 2360ft 95kts
26-Aug-21 09:33 35.273235 -120.702926 303 3579ft 100kts
26-Aug-21 09:34 35.289585 -120.729358 306 4927ft 96kts
26-Aug-21 09:35 35.305751 -120.753768 300 6206ft 91kts
26-Aug-21 09:36 35.322247 -120.778876 351 7122ft 116kts
26-Aug-21 09:37 35.323107 -120.741926 113 7165ft 156kts
26-Aug-21 09:38 35.289607 -120.708804 147 7049ft 162kts
26-Aug-21 09:39 35.254003 -120.675711 166 7055ft 160kts
26-Aug-21 09:40 35.217431 -120.648427 140 7060ft 160kts
26-Aug-21 09:41 35.181487 -120.616392 144 7057ft 160kts
26-Aug-21 09:42 35.148387 -120.580719 135 7057ft 160kts
26-Aug-21 09:43 35.114654 -120.547144 141 7057ft 160kts
26-Aug-21 09:44 35.082894 -120.509225 130 7057ft 160kts
26-Aug-21 09:46 35.050515 -120.471458 140 7058ft 161kts
26-Aug-21 09:47 35.019182 -120.432445 130 7058ft 161kts
26-Aug-21 09:48 34.989128 -120.391732 132 7058ft 161kts
26-Aug-21 09:49 34.958536 -120.351573 132 7058ft 161kts
26-Aug-21 09:50 34.928408 -120.312224 133 7057ft 162kts
26-Aug-21 09:51 34.897775 -120.272365 133 7056ft 162kts
26-Aug-21 09:52 34.866920 -120.232249 133 7056ft 162kts
26-Aug-21 09:53 34.836000 -120.192088 133 7060ft 161kts
26-Aug-21 09:54 34.805319 -120.152235 133 7061ft 161kts
26-Aug-21 09:55 34.774567 -120.112461 133 7056ft 162kts
26-Aug-21 09:56 34.744097 -120.072996 134 7037ft 146kts
26-Aug-21 09:57 34.715564 -120.036018 133 7042ft 161kts
26-Aug-21 09:58 34.684208 -119.995598 134 7037ft 166kts
26-Aug-21 09:59 34.652937 -119.955320 134 7036ft 166kts
26-Aug-21 10:00 34.621274 -119.914541 134 7036ft 166kts
26-Aug-21 10:01 34.589429 -119.873576 134 7036ft 166kts
26-Aug-21 10:02 34.560278 -119.836120 134 7037ft 166kts
26-Aug-21 10:03 34.528419 -119.795255 134 7036ft 167kts
26-Aug-21 10:04 34.498996 -119.751773 123 7037ft 167kts
26-Aug-21 10:05 34.473545 -119.704712 123 7037ft 167kts
26-Aug-21 10:06 34.448035 -119.657590 123 7037ft 167kts
26-Aug-21 10:07 34.422441 -119.610486 123 7005ft 168kts
26-Aug-21 10:08 34.396771 -119.563316 123 7000ft 167kts
26-Aug-21 10:08 34.375483 -119.524212 123 7001ft 167kts
26-Aug-21 10:09 34.349872 -119.477254 123 7004ft 167kts
26-Aug-21 10:11 34.320133 -119.422353 115 7006ft 167kts
26-Aug-21 10:11 34.318523 -119.376116 85 7008ft 166kts
26-Aug-21 10:12 34.320663 -119.320197 82 7007ft 166kts
26-Aug-21 10:14 34.328365 -119.255727 81 7008ft 165kts
26-Aug-21 10:15 34.333024 -119.200361 83 7008ft 166kts
26-Aug-21 10:16 34.337230 -119.144736 83 7009ft 166kts
26-Aug-21 10:16 34.340653 -119.098503 83 7009ft 165kts
26-Aug-21 10:17 34.344757 -119.042938 83 7009ft 166kts
26-Aug-21 10:18 34.348863 -118.987264 83 7009ft 166kts
26-Aug-21 10:19 34.352888 -118.931558 83 7008ft 166kts
26-Aug-21 10:20 34.354560 -118.875880 107 7013ft 166kts
26-Aug-21 10:21 34.337532 -118.823868 113 7027ft 167kts
26-Aug-21 10:22 34.319531 -118.772096 112 7029ft 167kts
26-Aug-21 10:23 34.301784 -118.720209 112 7033ft 167kts
26-Aug-21 10:24 34.284060 -118.668336 112 7035ft 167kts
26-Aug-21 10:25 34.266249 -118.616350 113 7034ft 167kts
26-Aug-21 10:26 34.248466 -118.564473 113 7031ft 167kts
26-Aug-21 10:27 34.230683 -118.512726 113 7028ft 167kts
26-Aug-21 10:28 34.213646 -118.460485 110 7027ft 167kts
26-Aug-21 10:30 34.195321 -118.398919 110 7028ft 167kts
26-Aug-21 10:30 34.181987 -118.354813 110 7028ft 168kts
26-Aug-21 10:31 34.166044 -118.302457 111 7027ft 167kts
26-Aug-21 10:32 34.149957 -118.249475 111 7027ft 167kts
26-Aug-21 10:33 34.134495 -118.198935 111 7027ft 167kts
26-Aug-21 10:34 34.118314 -118.145982 111 6999ft 168kts
26-Aug-21 10:35 34.102163 -118.093277 111 7000ft 167kts
26-Aug-21 10:36 34.085961 -118.040442 111 7003ft 167kts
26-Aug-21 10:37 34.069749 -117.987684 111 7005ft 167kts
26-Aug-21 10:38 34.053499 -117.934917 111 7006ft 167kts
26-Aug-21 10:39 34.045000 -117.878714 93 6565ft 180kts
26-Aug-21 10:40 34.041269 -117.818153 94 5571ft 181kts
26-Aug-21 10:41 34.037504 -117.759162 93 5009ft 168kts
26-Aug-21 10:42 34.033779 -117.703828 94 5010ft 163kts
26-Aug-21 10:43 34.029616 -117.649348 95 5011ft 163kts
26-Aug-21 10:44 34.024914 -117.594798 95 5012ft 163kts
26-Aug-21 10:45 34.019762 -117.540470 96 5012ft 163kts
26-Aug-21 10:46 34.014108 -117.486020 97 5011ft 163kts
26-Aug-21 10:47 34.007838 -117.431627 97 5000ft 163kts
26-Aug-21 10:48 34.001026 -117.377702 98 5000ft 162kts
26-Aug-21 10:49 34.002018 -117.324738 43 4941ft 164kts
26-Aug-21 10:50 34.044906 -117.304615 332 4290ft 166kts
26-Aug-21 10:51 34.054495 -117.352179 272 4231ft 140kts
26-Aug-21 10:52 34.054510 -117.398431 272 3999ft 139kts
26-Aug-21 10:53 34.054167 -117.443244 267 3204ft 128kts
26-Aug-21 10:54 34.054444 -117.481414 272 2587ft 103kts
26-Aug-21 10:55 34.054610 -117.514012 271 2032ft 85kts
26-Aug-21 10:56 34.054890 -117.542623 271 1671ft 85kts
26-Aug-21 10:57 34.054942 -117.570550 273 1181ft 80kts
26-Aug-21 10:58 34.054967 -117.593835 270 948ft 41kts
26-Aug-21 10:59 34.055999 -117.599823 354 948ft 0kts
26-Aug-21 11:00 34.056009 -117.599824 353 948ft 0kts
26-Aug-21 11:01 34.057931 -117.600094 304 948ft 11kts
26-Aug-21 11:02 34.058011 -117.605647 270 948ft 19kts
26-Aug-21 11:03 34.058005 -117.612297 270 948ft 19kts
26-Aug-21 11:04 34.057972 -117.618478 271 948ft 17kts
26-Aug-21 11:05 34.059069 -117.622102 347 948ft 10kts
26-Aug-21 11:06 34.059342 -117.622710 51 948ft 0kts
26-Aug-21 11:07 34.059342 -117.622710 51 948ft 0kts
26-Aug-21 11:08 34.059342 -117.622710 51 948ft 0kts
26-Aug-21 11:09 34.059342 -117.622710 51 948ft 0kts
26-Aug-21 11:10 34.059342 -117.622710 51 948ft 0kts
26-Aug-21 11:11 34.059342 -117.622710 51 948ft 0kts
26-Aug-21 11:12 34.059342 -117.622710 51 948ft 0kts
26-Aug-21 11:13 34.059342 -117.622710 51 948ft 0kts

Navigation Log

Ident Type
Flight plan parsing failed, navigation log unavailable